Airfield :
LOGIN :

Register | Disclaimer

   EN    FR    IT 

 










Legend :    VFR   Marginal VFR   IFR   Intensive IFR   Very Intensive IFR
Visi :
Ceiling :
>= 8 km
>= 3000ft
5 to 8 km
1000 to 3000 ft
1500m to 5 km
500 to 1000 ft
800 to 1500m
200 to 500 ft
< 800m
< 200 ft
Symbols :   Thunderstorms  Fog  Heavy snow  Heavy precipitations  Wind > 20 kt
SIGMETs :     Misc.  Thunderstorms  Icing  Turbulence  Mountain Waves  Volcanic Ashes






- Airport Elevation : 1299 ft


EDTY - Adolf Würth

CURRENT METAR :
  • 121320Z 26008KT 9999 FEW013 BKN015 BKN020 03/01 Q1003

EXPIRED METARs :
  • 121250Z 26011KT 9999 OVC011 03/01 Q1003
  • 121220Z 24007KT 210V270 9999 -RA SCT008 OVC010 03/02 Q1004
  • 121150Z 22006KT 200V260 7000 -RA FEW006 BKN009 OVC015 03/02 Q1004
  • 121120Z 23007KT 9999 SCT006 BKN008 OVC012 03/02 Q1004

TAF TAF EDTY
Valid from the 12 at 12:00 until the 12 at 21:00 UTC


121100Z 1212/1221 23007KT 9999 BKN020
TEMPO 1212/1215 4000 -SHRA BKN006 BKN014TCU
BECMG 1216/1218 14005KT



MET'MAP, your aeronautical weather chart ! - Copyright ORBIFLY December 2007 - Disclaimer

ORBIFLY MET'MAP TEAM :

Programming & Development : Alexandra Zaïnal
Concept & original design : Baudouin d'Aumeries
Assistance for programming : Marc-Olivier Méhu
Technical & hardware support : Manuel Goepfert

Contact : metmap@orbifly.com




SOURCES & CREDITS :

   NOAA